Niva, Denmark
Current Conditions -  °F | °C
As of 12:20 PM on Saturday 20 Dec 2014 (Local Time) from EKCH Reporting Station
Broken Clouds Broken Clouds  
Wind Chill: 32°   Ceiling: 3000
Heat Index: 41°   Visibility: 6mi
Dew Point: 36°   Wind: 20mph
Humidity: 81%   Direction: 260°W
Pressure: 29.44"   Gusts: NA
Location:  55.93°N, 12.5°E
Report Text: EKCH 201120Z 26017KT 9999 FEW020 BKN030 05/02 Q0997 TEMPOFM1140 27020G40KT 2000 TSRA SNGS BKN010CB
Loading
Personal Weather Stations






























Interactive Weather Map New forecast layout! Learn more

10-Day Weather Forecast

Advertisements
Track Severe Weather on mobile